Time;durP1;ratioP1;P1;durP2;ratioP2;P2;SDS_P1;SDS_P2;PMS_P1;PMS_P2;Temp;Humidity;BMP_temperature;BMP_pressure;BME280_temperature;BME280_humidity;BME280_pressure;Samples;Min_cycle;Max_cycle;Signal;HPM_P1;HPM_P2
2022/11/20 00:00:56;;;;;;;3.67;1.00;;;;;;;17.81;49.99;93185.06;5062875;28;20223;-80
2022/11/20 00:03:22;;;;;;;3.53;1.27;;;;;;;17.75;49.95;93178.50;5062585;28;20029;-80
2022/11/20 00:05:47;;;;;;;7.47;1.52;;;;;;;17.74;50.24;93211.97;5062597;28;20023;-80
2022/11/20 00:08:13;;;;;;;2.33;0.88;;;;;;;17.75;50.01;93204.69;5062798;28;20020;-80
2022/11/20 00:10:41;;;;;;;3.20;0.90;;;;;;;17.73;50.24;93182.72;5062444;28;20085;-80
2022/11/20 00:13:07;;;;;;;5.95;1.15;;;;;;;17.76;49.88;93192.72;5062424;28;20033;-80
2022/11/20 00:15:33;;;;;;;7.50;1.40;;;;;;;17.75;50.50;93170.41;5062473;28;20033;-79
2022/11/20 00:17:59;;;;;;;3.38;0.98;;;;;;;17.76;50.63;93188.13;5062538;28;20021;-80
2022/11/20 00:20:24;;;;;;;5.07;1.40;;;;;;;17.74;50.32;93195.03;5062751;28;20048;-80
2022/11/20 00:22:50;;;;;;;3.40;0.98;;;;;;;17.70;50.38;93192.31;5062362;28;20373;-79
2022/11/20 00:25:16;;;;;;;3.10;1.27;;;;;;;17.67;50.77;93193.06;5062575;28;20044;-80
2022/11/20 00:27:41;;;;;;;2.28;0.70;;;;;;;17.71;50.21;93163.44;5061339;28;20116;-80
2022/11/20 00:30:07;;;;;;;5.43;1.25;;;;;;;17.70;50.70;93176.13;5062302;28;20048;-80
2022/11/20 00:32:33;;;;;;;8.07;1.45;;;;;;;17.67;50.05;93166.13;5062223;28;20044;-79
2022/11/20 00:34:58;;;;;;;4.35;1.08;;;;;;;17.68;50.20;93170.34;5061414;28;20076;-79
2022/11/20 00:37:24;;;;;;;3.53;2.00;;;;;;;17.70;50.21;93172.69;5062274;28;20047;-80
2022/11/20 00:39:49;;;;;;;5.32;0.73;;;;;;;17.73;50.04;93164.63;5062503;28;20402;-80
2022/11/20 00:42:15;;;;;;;2.10;0.93;;;;;;;17.76;50.16;93190.03;5062356;28;20088;-80
2022/11/20 00:44:40;;;;;;;3.88;0.80;;;;;;;17.71;49.43;93177.69;5062253;28;20024;-80
2022/11/20 00:47:05;;;;;;;2.10;0.60;;;;;;;17.78;48.43;93190.44;5062165;28;20059;-79
2022/11/20 00:49:31;;;;;;;3.47;0.88;;;;;;;17.82;48.94;93148.88;5063465;28;20041;-80
2022/11/20 00:51:56;;;;;;;2.47;0.80;;;;;;;17.84;49.68;93173.56;5066294;28;20152;-80
2022/11/20 00:54:22;;;;;;;2.92;0.90;;;;;;;17.84;49.04;93199.75;5066173;28;20031;-80
2022/11/20 00:56:47;;;;;;;3.85;1.00;;;;;;;17.87;49.44;93192.84;5065916;28;20043;-81
2022/11/20 00:59:12;;;;;;;4.13;1.10;;;;;;;17.88;48.96;93199.78;5065748;28;20294;-81
2022/11/20 01:01:38;;;;;;;3.88;0.80;;;;;;;17.93;48.83;93186.72;5065805;28;20027;-81
2022/11/20 01:04:04;;;;;;;2.70;1.00;;;;;;;17.96;49.02;93169.03;5065902;28;20063;-81
2022/11/20 01:06:35;;;;;;;6.30;0.98;;;;;;;17.95;48.95;93170.97;5065701;28;20021;-81
2022/11/20 01:09:10;;;;;;;7.10;1.00;;;;;;;17.95;48.77;93199.81;5065619;28;20025;-80
2022/11/20 01:11:38;;;;;;;4.53;0.90;;;;;;;17.93;48.49;93184.03;5065944;28;20032;-81
2022/11/20 01:14:07;;;;;;;2.28;0.63;;;;;;;17.87;48.49;93163.97;5065799;28;20091;-80
2022/11/20 01:16:41;;;;;;;6.43;1.10;;;;;;;17.91;48.70;93162.06;5065353;28;20036;-80
2022/11/20 01:19:11;;;;;;;4.75;0.80;;;;;;;17.94;48.49;93172.09;5065519;28;20021;-80
2022/11/20 01:21:38;;;;;;;2.83;0.95;;;;;;;17.93;48.48;93183.25;5065447;28;20040;-80
2022/11/20 01:24:07;;;;;;;1.55;0.55;;;;;;;17.94;48.60;93147.81;5065359;28;20021;-80
2022/11/20 01:26:35;;;;;;;2.20;0.80;;;;;;;17.96;48.89;93175.19;5065510;28;20013;-80
2022/11/20 01:29:01;;;;;;;3.13;0.77;;;;;;;17.95;48.78;93159.38;5065230;28;20021;-80
2022/11/20 01:31:32;;;;;;;2.83;0.70;;;;;;;17.92;49.12;93147.44;5064528;28;20021;-80
2022/11/20 01:34:00;;;;;;;4.20;1.00;;;;;;;17.92;48.47;93142.03;5065681;28;20091;-80
2022/11/20 01:36:28;;;;;;;3.50;1.08;;;;;;;17.88;48.77;93141.25;5065452;28;20341;-80
2022/11/20 01:38:56;;;;;;;2.15;0.70;;;;;;;17.83;48.21;93128.91;5065207;28;20025;-80
2022/11/20 01:44:11;;;;;;;3.78;0.85;;;;;;;17.91;48.56;93142.41;5065052;28;20067;-80
2022/11/20 01:46:40;;;;;;;2.50;0.75;;;;;;;17.90;48.42;93152.44;5065045;28;20017;-81
2022/11/20 01:49:17;;;;;;;3.97;0.70;;;;;;;17.92;48.58;93130.50;5065177;28;20021;-81
2022/11/20 01:51:50;;;;;;;6.38;0.80;;;;;;;17.91;47.95;93127.03;5065214;28;20052;-80
2022/11/20 01:54:23;;;;;;;1.50;0.70;;;;;;;17.94;47.92;93099.31;5064909;28;20071;-80
2022/11/20 01:56:53;;;;;;;6.07;0.90;;;;;;;17.93;47.99;93142.81;5064724;28;20067;-80
2022/11/20 01:59:21;;;;;;;3.75;0.85;;;;;;;17.88;47.97;93135.09;5064774;28;20374;-81
2022/11/20 02:01:47;;;;;;;5.75;0.70;;;;;;;17.91;47.57;93150.50;5063238;28;20025;-80
2022/11/20 02:04:15;;;;;;;1.45;0.60;;;;;;;17.93;47.40;93132.81;5064764;28;20049;-80
2022/11/20 02:06:46;;;;;;;3.10;0.82;;;;;;;17.96;47.60;93147.47;5064789;28;20059;-80
2022/11/20 02:09:11;;;;;;;3.55;1.65;;;;;;;17.89;47.72;93174.34;5064510;28;20021;-80
2022/11/20 02:11:37;;;;;;;2.92;1.02;;;;;;;17.92;47.72;93149.38;5064657;28;20105;-80
2022/11/20 02:14:03;;;;;;;1.80;0.70;;;;;;;17.89;47.87;93152.78;5064625;28;20020;-80
2022/11/20 02:16:33;;;;;;;1.17;0.68;;;;;;;17.88;48.14;93146.63;5064630;28;20025;-80
2022/11/20 02:19:01;;;;;;;5.72;0.80;;;;;;;17.81;47.92;93147.34;5064520;28;20021;-80
2022/11/20 02:21:30;;;;;;;3.83;1.10;;;;;;;17.86;47.96;93188.59;5064695;28;20088;-80
2022/11/20 02:24:05;;;;;;;0.95;0.55;;;;;;;17.82;47.70;93154.28;5064537;28;20021;-80
2022/11/20 02:26:34;;;;;;;2.92;0.82;;;;;;;17.86;48.06;93158.94;5064353;28;20044;-79
2022/11/20 02:29:02;;;;;;;0.63;0.45;;;;;;;17.86;47.89;93145.47;5064265;28;20025;-80
2022/11/20 02:31:27;;;;;;;2.75;0.65;;;;;;;17.85;48.31;93147.41;5064238;28;20327;-80
2022/11/20 02:33:57;;;;;;;1.55;0.52;;;;;;;17.82;48.33;93175.06;5064023;28;20021;-79
2022/11/20 02:36:26;;;;;;;2.25;0.60;;;;;;;17.80;48.32;93151.19;5064177;28;20031;-80
2022/11/20 02:38:51;;;;;;;2.95;0.70;;;;;;;17.78;48.03;93134.59;5064296;28;20031;-80
2022/11/20 02:41:17;;;;;;;3.10;0.60;;;;;;;17.83;48.46;93152.41;5064060;28;20224;-80
2022/11/20 02:43:42;;;;;;;4.68;0.65;;;;;;;17.77;48.35;93161.97;5063793;28;20025;-79
2022/11/20 02:46:08;;;;;;;3.00;0.80;;;;;;;17.77;49.07;93164.66;5064116;28;20033;-79
2022/11/20 02:48:34;;;;;;;7.35;1.30;;;;;;;17.75;49.67;93183.88;5063937;28;20035;-80
2022/11/20 02:50:59;;;;;;;4.88;0.90;;;;;;;17.75;49.71;93197.34;5064063;28;20033;-80
2022/11/20 02:53:25;;;;;;;5.03;0.70;;;;;;;17.75;49.73;93202.75;5063838;28;20020;-79
2022/11/20 02:55:50;;;;;;;2.78;0.82;;;;;;;17.76;50.26;93188.13;5063680;28;20029;-80
2022/11/20 02:58:15;;;;;;;2.72;1.05;;;;;;;17.69;49.97;93198.06;5063519;28;20048;-80
2022/11/20 03:00:41;;;;;;;1.95;0.80;;;;;;;17.68;50.53;93191.13;5063816;28;20040;-79
2022/11/20 03:03:06;;;;;;;3.83;0.75;;;;;;;17.61;50.39;93191.88;5063670;28;20042;-79
2022/11/20 03:05:32;;;;;;;4.80;1.33;;;;;;;17.59;50.60;93215.72;5063684;28;20020;-80
2022/11/20 03:07:57;;;;;;;2.28;0.80;;;;;;;17.53;50.73;93244.91;5063736;28;20070;-80
2022/11/20 03:10:23;;;;;;;3.67;0.80;;;;;;;17.47;51.23;93180.97;5063296;28;20027;-79
2022/11/20 03:12:54;;;;;;;3.72;0.95;;;;;;;17.42;51.36;93185.56;5062795;28;20319;-79
2022/11/20 03:15:19;;;;;;;6.35;1.02;;;;;;;17.41;51.22;93173.22;5063329;28;20067;-80
2022/11/20 03:17:45;;;;;;;4.40;0.80;;;;;;;17.42;50.56;93172.09;5063427;28;20021;-80
2022/11/20 03:20:10;;;;;;;2.85;0.77;;;;;;;17.43;51.04;93208.66;5063222;28;20021;-79
2022/11/20 03:22:36;;;;;;;6.50;0.90;;;;;;;17.35;50.60;93196.25;5063390;28;20243;-80
2022/11/20 03:25:02;;;;;;;2.55;1.05;;;;;;;17.38;50.78;93203.63;5063194;28;20028;-79
2022/11/20 03:27:33;;;;;;;4.78;0.80;;;;;;;17.35;51.10;93193.56;5063254;28;20261;-79
2022/11/20 03:29:58;;;;;;;5.63;1.45;;;;;;;17.34;51.36;93178.56;5063450;28;20020;-80
2022/11/20 03:32:24;;;;;;;2.47;0.63;;;;;;;17.30;51.21;93204.69;5063151;28;20188;-80
2022/11/20 03:34:49;;;;;;;2.88;1.00;;;;;;;17.28;51.61;93207.00;5063065;28;20251;-80
2022/11/20 03:37:15;;;;;;;3.92;1.10;;;;;;;17.29;51.84;93195.06;5062921;28;20096;-79
2022/11/20 03:39:40;;;;;;;5.47;1.10;;;;;;;17.22;51.71;93197.69;5063263;28;20025;-80
2022/11/20 03:42:44;;;;;;;1.90;0.90;;;;;;;17.21;51.98;93196.13;5063040;28;20021;-80
2022/11/20 03:44:51;;;;;;;3.28;0.70;;;;;;;17.21;51.60;93206.91;5062880;28;20091;-79
2022/11/20 03:47:16;;;;;;;7.18;1.00;;;;;;;17.21;51.92;93212.28;5062925;28;20020;-79
2022/11/20 03:49:42;;;;;;;3.63;0.82;;;;;;;17.17;51.65;93224.94;5062759;28;20036;-79
2022/11/20 03:52:07;;;;;;;3.60;0.88;;;;;;;17.21;51.14;93229.22;5062800;28;20029;-79
2022/11/20 03:54:33;;;;;;;1.52;0.77;;;;;;;17.23;51.05;93210.00;5062832;28;20087;-79
2022/11/20 03:56:58;;;;;;;6.15;0.90;;;;;;;17.24;51.49;93241.19;5062839;28;20033;-79
2022/11/20 03:59:23;;;;;;;1.77;0.70;;;;;;;17.25;51.67;93240.03;5062726;28;20044;-79
2022/11/20 04:01:49;;;;;;;3.58;0.90;;;;;;;17.18;51.33;93229.97;5062507;28;20036;-79
2022/11/20 04:04:14;;;;;;;3.33;0.90;;;;;;;17.21;51.61;93212.28;5062868;28;20342;-79
2022/11/20 04:06:40;;;;;;;7.80;0.82;;;;;;;17.14;51.56;93214.94;5062766;28;20027;-79
2022/11/20 04:09:06;;;;;;;4.05;0.90;;;;;;;17.19;51.81;93211.88;5062786;28;20025;-79
2022/11/20 04:11:33;;;;;;;1.27;0.55;;;;;;;17.16;51.43;93204.56;5062535;28;20055;-79
2022/11/20 04:14:01;;;;;;;2.92;0.80;;;;;;;17.14;51.29;93212.25;5062618;28;20315;-80
2022/11/20 04:16:31;;;;;;;3.80;1.00;;;;;;;17.09;51.65;93209.88;5062746;28;20021;-80
2022/11/20 04:18:58;;;;;;;2.08;0.90;;;;;;;17.09;51.21;93226.03;5062649;28;20029;-79
2022/11/20 04:21:25;;;;;;;2.50;0.80;;;;;;;17.08;51.51;93224.47;5062576;28;20255;-79
2022/11/20 04:23:52;;;;;;;5.00;0.90;;;;;;;17.01;51.66;93212.47;5064280;28;20028;-79
2022/11/20 04:26:18;;;;;;;2.45;1.15;;;;;;;17.05;52.47;93228.66;5066674;28;20307;-80
2022/11/20 04:28:44;;;;;;;4.43;0.73;;;;;;;17.04;52.12;93237.91;5066362;28;20083;-79
2022/11/20 04:31:15;;;;;;;2.80;1.33;;;;;;;17.05;51.88;93256.34;5066610;28;20072;-80
2022/11/20 04:33:40;;;;;;;1.42;0.70;;;;;;;17.01;52.88;93252.84;5066499;28;20059;-80
2022/11/20 04:36:15;;;;;;;3.33;1.27;;;;;;;16.96;53.09;93244.34;5066376;28;20025;-80
2022/11/20 04:38:40;;;;;;;1.67;0.82;;;;;;;16.99;53.29;93251.69;5066200;28;20095;-80
2022/11/20 04:41:15;;;;;;;3.53;1.13;;;;;;;16.96;53.30;93247.81;5066286;28;20095;-80
2022/11/20 04:43:41;;;;;;;4.03;1.00;;;;;;;16.94;53.58;93231.25;5066206;28;20031;-80
2022/11/20 04:46:06;;;;;;;2.67;0.93;;;;;;;16.90;53.36;93241.22;5066250;28;20033;-80
2022/11/20 04:48:32;;;;;;;3.95;0.90;;;;;;;16.94;53.58;93243.94;5066121;28;20025;-80
2022/11/20 04:50:57;;;;;;;6.10;1.13;;;;;;;16.88;53.48;93224.66;5066136;28;20390;-80
2022/11/20 04:53:23;;;;;;;4.60;1.35;;;;;;;16.90;53.61;93240.44;5066015;28;20078;-80
2022/11/20 04:55:49;;;;;;;4.00;0.68;;;;;;;16.88;53.17;93230.03;5065976;28;20323;-80
2022/11/20 04:58:14;;;;;;;8.85;0.90;;;;;;;16.89;52.83;93214.66;5065815;28;20040;-80
2022/11/20 05:00:40;;;;;;;1.35;0.60;;;;;;;16.93;53.32;93210.84;5065960;28;20017;-80
2022/11/20 05:03:06;;;;;;;3.03;0.70;;;;;;;16.83;52.78;93208.81;5065658;28;20044;-80
2022/11/20 05:05:34;;;;;;;1.27;0.60;;;;;;;16.88;52.94;93238.09;5065830;28;20017;-79
2022/11/20 05:07:59;;;;;;;3.22;1.17;;;;;;;16.83;53.65;93222.28;5065920;28;20021;-79
2022/11/20 05:10:26;;;;;;;4.53;0.75;;;;;;;16.84;53.77;93218.47;5065910;28;20066;-79
2022/11/20 05:12:52;;;;;;;1.80;0.50;;;;;;;16.79;54.21;93214.16;5065595;28;20025;-80
2022/11/20 05:15:17;;;;;;;3.63;0.60;;;;;;;16.77;54.59;93204.88;5065587;28;20028;-80
2022/11/20 05:17:50;;;;;;;2.20;0.60;;;;;;;16.69;54.45;93214.00;5065641;28;20066;-79
2022/11/20 05:20:16;;;;;;;7.28;2.17;;;;;;;16.63;54.80;93211.66;5065383;28;20028;-79
2022/11/20 05:22:42;;;;;;;3.60;1.10;;;;;;;16.58;55.27;93220.03;5065596;28;20021;-79
2022/11/20 05:25:07;;;;;;;1.52;0.73;;;;;;;16.60;55.54;93201.63;5065489;28;20045;-79
2022/11/20 05:27:33;;;;;;;3.25;1.30;;;;;;;16.56;55.64;93190.03;5065600;28;20024;-80
2022/11/20 05:29:58;;;;;;;5.68;1.23;;;;;;;16.57;55.46;93188.16;5065418;28;20311;-79
2022/11/20 05:32:25;;;;;;;3.40;1.40;;;;;;;16.53;55.71;93163.13;5065250;28;20048;-80
2022/11/20 05:34:51;;;;;;;5.72;2.38;;;;;;;16.52;56.05;93166.94;5064438;28;20200;-79
2022/11/20 05:37:16;;;;;;;3.70;0.85;;;;;;;16.54;55.55;93175.41;5064079;28;20024;-79
2022/11/20 05:39:42;;;;;;;3.67;0.93;;;;;;;16.49;55.52;93184.59;5065286;28;20334;-79
2022/11/20 05:44:52;;;;;;;6.53;0.80;;;;;;;16.44;55.18;93133.81;5064978;28;20035;-79
2022/11/20 05:47:17;;;;;;;4.57;0.80;;;;;;;16.49;54.88;93179.22;5063977;28;20017;-79
2022/11/20 05:49:42;;;;;;;2.03;0.73;;;;;;;16.54;54.47;93156.59;5065102;28;20215;-80
2022/11/20 05:52:08;;;;;;;3.33;0.70;;;;;;;16.55;53.83;93163.53;5064982;28;20032;-80
2022/11/20 05:54:33;;;;;;;1.17;0.50;;;;;;;16.61;53.42;93154.75;5064744;28;20311;-80
2022/11/20 05:56:59;;;;;;;3.80;0.73;;;;;;;16.65;53.12;93177.09;5065004;28;20204;-80
2022/11/20 05:59:25;;;;;;;1.42;0.55;;;;;;;16.65;54.04;93182.47;5064847;28;20082;-80
2022/11/20 06:01:50;;;;;;;3.10;0.93;;;;;;;16.69;53.90;93187.09;5064874;28;20044;-80
2022/11/20 06:04:15;;;;;;;3.10;0.82;;;;;;;16.67;54.30;93186.69;5064687;28;20240;-80
2022/11/20 06:06:41;;;;;;;3.30;0.73;;;;;;;16.66;53.80;93194.00;5064662;28;20051;-80
2022/11/20 06:09:07;;;;;;;1.75;0.90;;;;;;;16.63;53.84;93192.81;5064863;28;20079;-80
2022/11/20 06:11:32;;;;;;;3.25;0.80;;;;;;;16.65;53.43;93181.72;5064730;28;20249;-80
2022/11/20 06:13:57;;;;;;;4.18;1.00;;;;;;;16.68;54.06;93189.03;5064747;28;20092;-80
2022/11/20 06:16:23;;;;;;;5.18;0.77;;;;;;;16.70;53.38;93191.34;5064360;28;20029;-80
2022/11/20 06:18:49;;;;;;;6.03;0.90;;;;;;;16.77;53.33;93200.28;5064478;28;20495;-80
2022/11/20 06:21:16;;;;;;;2.25;0.70;;;;;;;16.76;53.46;93177.19;5064439;28;20017;-81
2022/11/20 06:23:42;;;;;;;2.55;0.85;;;;;;;16.83;52.47;93179.22;5064333;28;20021;-81
2022/11/20 06:26:12;;;;;;;2.60;0.70;;;;;;;16.83;53.20;93176.53;5064465;28;20021;-81
2022/11/20 06:28:38;;;;;;;5.57;0.68;;;;;;;16.87;53.06;93208.88;5064290;28;20105;-80
2022/11/20 06:31:04;;;;;;;2.92;0.70;;;;;;;16.88;53.13;93210.44;5064375;28;20219;-80
2022/11/20 06:33:30;;;;;;;5.13;0.88;;;;;;;16.89;53.10;93209.28;5064223;28;20307;-80
2022/11/20 06:36:00;;;;;;;2.35;0.77;;;;;;;16.93;52.89;93208.16;5064445;28;20092;-80
2022/11/20 06:38:27;;;;;;;5.35;1.42;;;;;;;16.99;52.12;93201.31;5064423;28;20023;-80
2022/11/20 06:40:52;;;;;;;1.67;0.80;;;;;;;17.01;51.93;93204.41;5064088;28;20017;-80
2022/11/20 06:43:18;;;;;;;3.33;0.70;;;;;;;17.11;51.46;93212.97;5064039;28;20021;-80
2022/11/20 06:45:43;;;;;;;2.40;0.60;;;;;;;17.16;49.88;93194.56;5063878;28;20071;-80
2022/11/20 06:48:09;;;;;;;2.05;0.70;;;;;;;17.19;49.44;93199.19;5062867;28;20048;-80
2022/11/20 06:50:36;;;;;;;2.55;0.60;;;;;;;17.26;49.44;93222.75;5063969;28;20036;-79
2022/11/20 06:53:04;;;;;;;1.63;0.70;;;;;;;17.33;49.58;93224.72;5063778;28;20017;-80
2022/11/20 06:55:31;;;;;;;3.72;0.85;;;;;;;17.34;49.56;93218.97;5062642;28;20037;-80
2022/11/20 06:57:56;;;;;;;1.85;0.40;;;;;;;17.44;49.70;93237.16;5063770;28;20049;-80
2022/11/20 07:00:21;;;;;;;1.67;0.40;;;;;;;17.56;50.13;93232.59;5063646;28;20039;-79
2022/11/20 07:02:47;;;;;;;3.50;0.75;;;;;;;17.63;50.18;93254.25;5063673;28;20083;-80
2022/11/20 07:05:13;;;;;;;4.60;0.93;;;;;;;17.71;49.70;93245.06;5063490;28;20021;-80
2022/11/20 07:07:38;;;;;;;4.07;0.77;;;;;;;17.74;50.04;93260.47;5063571;28;20319;-80
2022/11/20 07:10:04;;;;;;;2.70;1.10;;;;;;;17.65;50.11;93241.94;5063339;28;20021;-80
2022/11/20 07:12:29;;;;;;;4.03;0.80;;;;;;;17.60;50.35;93241.50;5063541;28;20020;-80
2022/11/20 07:14:55;;;;;;;3.13;0.90;;;;;;;17.60;51.37;93238.81;5063481;28;20207;-80
2022/11/20 07:17:20;;;;;;;2.45;1.13;;;;;;;17.56;50.84;93232.59;5063294;28;20067;-80
2022/11/20 07:19:46;;;;;;;3.40;1.20;;;;;;;17.41;49.86;93235.19;5063009;28;20226;-79
2022/11/20 07:22:11;;;;;;;2.63;0.82;;;;;;;17.33;50.00;93252.41;5063326;28;20041;-80
2022/11/20 07:24:37;;;;;;;1.27;0.60;;;;;;;17.32;50.39;93240.13;5063289;28;20047;-80
2022/11/20 07:27:03;;;;;;;2.72;0.80;;;;;;;17.36;51.02;93246.31;5063131;28;20088;-80
2022/11/20 07:29:29;;;;;;;3.67;1.10;;;;;;;17.33;51.10;93252.41;5063005;28;20017;-80
2022/11/20 07:31:56;;;;;;;4.20;0.75;;;;;;;17.28;51.50;93233.13;5063428;28;20025;-80
2022/11/20 07:34:21;;;;;;;5.35;2.10;;;;;;;17.29;51.10;93251.63;5063332;28;20024;-80
2022/11/20 07:36:46;;;;;;;4.78;1.02;;;;;;;17.28;50.88;93250.06;5062982;28;20020;-80
2022/11/20 07:39:12;;;;;;;6.95;1.05;;;;;;;17.34;50.72;93227.06;5062945;28;20282;-80
2022/11/20 07:41:37;;;;;;;2.10;0.98;;;;;;;17.33;51.55;93247.03;5063138;28;20025;-80
2022/11/20 07:44:03;;;;;;;4.60;1.08;;;;;;;17.24;50.47;93216.94;5063045;28;20060;-80
2022/11/20 07:46:28;;;;;;;12.10;1.42;;;;;;;17.27;51.11;93228.91;5063137;28;20013;-80
2022/11/20 07:48:54;;;;;;;5.45;1.05;;;;;;;17.29;50.96;93226.59;5062947;28;20017;-80
2022/11/20 07:51:19;;;;;;;3.28;0.85;;;;;;;17.27;52.39;93242.34;5062992;28;20079;-80
2022/11/20 07:53:45;;;;;;;3.38;1.00;;;;;;;17.25;51.88;93229.25;5063128;28;20254;-80
2022/11/20 07:56:10;;;;;;;8.45;1.80;;;;;;;17.29;51.34;93248.91;5062840;28;20052;-80
2022/11/20 07:58:36;;;;;;;5.20;0.63;;;;;;;17.34;52.77;93245.09;5062022;28;20045;-80
2022/11/20 08:01:06;;;;;;;5.35;1.27;;;;;;;17.32;52.06;93277.81;5062998;28;20096;-80
2022/11/20 08:03:31;;;;;;;4.45;1.23;;;;;;;17.36;53.01;93265.16;5063109;28;20219;-80
2022/11/20 08:06:01;;;;;;;6.00;1.13;;;;;;;17.36;51.68;93243.63;5062956;28;20013;-80
2022/11/20 08:08:28;;;;;;;7.13;1.42;;;;;;;17.39;53.45;93244.78;5063051;28;20080;-80
2022/11/20 08:14:11;;;;;;;3.65;1.15;;;;;;;17.25;52.83;93251.56;5061710;28;20307;-80
2022/11/20 08:16:23;;;;;;;4.97;1.50;;;;;;;17.33;51.69;93251.66;5062691;28;20051;-80
2022/11/20 08:18:49;;;;;;;14.07;1.17;;;;;;;17.38;51.50;93265.56;5062385;28;20025;-80
2022/11/20 08:21:15;;;;;;;6.95;1.40;;;;;;;17.42;51.11;93265.56;5062389;28;20160;-80
2022/11/20 08:23:40;;;;;;;14.52;1.55;;;;;;;17.48;50.25;93307.19;5062436;28;20021;-80
2022/11/20 08:26:06;;;;;;;11.40;0.95;;;;;;;17.51;51.67;93290.31;5062639;28;20013;-81
2022/11/20 08:28:31;;;;;;;5.30;1.25;;;;;;;17.59;51.48;93308.09;5062711;28;20204;-81
2022/11/20 08:31:00;;;;;;;13.70;1.30;;;;;;;17.70;50.84;93292.03;5062512;28;20343;-80
2022/11/20 08:33:26;;;;;;;6.63;1.15;;;;;;;17.80;51.31;93301.34;5062716;28;20017;-80
2022/11/20 08:35:51;;;;;;;6.05;1.48;;;;;;;17.80;49.72;93293.25;5062499;28;20032;-80
2022/11/20 08:38:17;;;;;;;7.95;1.70;;;;;;;17.84;50.05;93283.31;5062467;28;20040;-81
2022/11/20 08:41:23;;;;;;;7.53;2.00;;;;;;;17.82;49.92;93299.06;5062375;28;20047;-79
2022/11/20 08:43:28;;;;;;;5.32;1.65;;;;;;;17.82;51.16;93326.00;5062549;28;20025;-80
2022/11/20 08:45:53;;;;;;;5.00;1.45;;;;;;;17.75;53.31;93315.94;5062498;28;20016;-80
2022/11/20 08:48:18;;;;;;;9.70;0.98;;;;;;;17.64;54.05;93339.31;5062276;28;20177;-80
2022/11/20 08:50:44;;;;;;;8.88;1.30;;;;;;;17.59;54.54;93331.56;5061117;28;20049;-80
2022/11/20 08:53:09;;;;;;;4.70;1.17;;;;;;;17.55;56.18;93336.16;5062387;28;20265;-80
2022/11/20 08:55:36;;;;;;;10.35;1.10;;;;;;;17.59;57.16;93334.28;5062331;28;20013;-80
2022/11/20 08:58:05;;;;;;;4.22;1.42;;;;;;;17.69;57.37;93327.41;5062253;28;20098;-80
2022/11/20 09:00:32;;;;;;;3.33;1.10;;;;;;;17.72;57.44;93305.91;5060801;28;20052;-80
2022/11/20 09:02:58;;;;;;;9.02;1.85;;;;;;;17.83;58.68;93328.38;5062365;28;20032;-80
2022/11/20 09:05:24;;;;;;;8.85;1.45;;;;;;;17.95;57.88;93331.91;5062205;28;20021;-79
2022/11/20 09:07:49;;;;;;;6.07;1.65;;;;;;;17.75;57.45;93337.50;5062385;28;20317;-80
2022/11/20 09:10:15;;;;;;;4.28;1.13;;;;;;;17.59;56.19;93312.72;5063190;28;20025;-80
2022/11/20 09:12:40;;;;;;;11.20;2.05;;;;;;;17.23;60.03;93339.25;5065840;28;20032;-80
2022/11/20 09:15:06;;;;;;;2.90;0.90;;;;;;;16.94;57.26;93333.53;5065497;28;20017;-80
2022/11/20 09:17:32;;;;;;;0.68;0.50;;;;;;;16.67;56.72;93323.91;5065581;28;20032;-80
2022/11/20 09:19:57;;;;;;;6.45;0.88;;;;;;;16.01;62.05;93343.72;5065932;28;20029;-80
2022/11/20 09:22:24;;;;;;;2.45;1.45;;;;;;;15.39;64.58;93334.94;5065718;28;20196;-80
2022/11/20 09:24:49;;;;;;;5.55;0.75;;;;;;;14.56;69.95;93341.34;5065637;28;20075;-80
2022/11/20 09:27:20;;;;;;;3.05;0.50;;;;;;;14.33;70.29;93330.47;5065479;28;20085;-78
2022/11/20 09:29:45;;;;;;;1.55;0.40;;;;;;;14.22;68.64;93319.50;5065405;28;20024;-78
2022/11/20 09:32:11;;;;;;;1.58;0.47;;;;;;;14.25;70.67;93313.47;5065335;28;20076;-78
2022/11/20 09:34:36;;;;;;;0.68;0.40;;;;;;;14.30;72.87;93317.00;5065438;28;20366;-78
2022/11/20 09:37:02;;;;;;;7.20;0.60;;;;;;;14.36;74.63;93291.47;5065371;28;20227;-78
2022/11/20 09:39:27;;;;;;;5.65;0.90;;;;;;;14.45;75.87;93276.75;5065610;28;20021;-78
2022/11/20 09:42:22;;;;;;;3.55;0.77;;;;;;;14.64;71.41;93294.00;5065008;28;20021;-79
2022/11/20 09:45:14;;;;;;;7.85;2.20;;;;;;;14.92;68.80;93280.38;5065172;28;20066;-78
2022/11/20 09:47:54;;;;;;;10.88;1.60;;;;;;;15.13;70.92;93274.63;5065075;28;20017;-79
2022/11/20 09:50:31;;;;;;;8.88;1.70;;;;;;;15.30;72.34;93281.47;5064914;28;20033;-79
2022/11/20 09:53:30;;;;;;;11.88;3.65;;;;;;;15.51;73.53;93273.00;5065352;28;20218;-79
2022/11/20 09:55:56;;;;;;;4.05;1.58;;;;;;;15.69;75.13;93294.00;5065379;28;20056;-79
2022/11/20 09:58:29;;;;;;;6.97;1.83;;;;;;;15.78;73.05;93292.66;5064757;28;20072;-79
2022/11/20 10:01:00;;;;;;;5.30;2.78;;;;;;;15.99;75.77;93275.34;5065032;28;20043;-79
2022/11/20 10:03:46;;;;;;;8.45;4.05;;;;;;;16.14;69.86;93297.81;5064818;28;20028;-79
2022/11/20 10:06:17;;;;;;;10.68;4.05;;;;;;;16.36;70.47;93275.47;5065084;28;20009;-79
2022/11/20 10:08:55;;;;;;;8.23;3.10;;;;;;;16.61;71.40;93280.44;5064783;28;20027;-80
2022/11/20 10:11:38;;;;;;;11.85;4.93;;;;;;;16.75;69.61;93286.00;5064727;28;20275;-79
2022/11/20 10:14:12;;;;;;;9.07;2.38;;;;;;;16.83;63.92;93262.66;5064594;28;20120;-80
2022/11/20 10:16:55;;;;;;;7.40;2.60;;;;;;;16.99;65.74;93259.75;5064635;28;20117;-80
2022/11/20 10:19:35;;;;;;;7.78;3.67;;;;;;;17.23;68.30;93277.31;5064618;28;20025;-80
2022/11/20 10:22:19;;;;;;;9.15;3.10;;;;;;;17.43;68.29;93273.31;5064037;28;20021;-80
2022/11/20 10:25:06;;;;;;;7.55;3.00;;;;;;;17.58;65.83;93258.03;5064319;28;20315;-80
2022/11/20 10:28:06;;;;;;;5.82;2.10;;;;;;;17.65;65.50;93255.41;5064191;28;20028;-80
2022/11/20 10:30:38;;;;;;;5.97;2.35;;;;;;;17.70;66.11;93258.91;5063219;28;20021;-80
2022/11/20 10:33:06;;;;;;;;;;;;;;;17.73;64.96;93263.56;5064866;28;20241;-80
2022/11/20 10:35:31;;;;;;;7.20;2.42;;;;;;;17.72;65.92;93276.25;5064024;28;19904;-80
2022/11/20 10:38:05;;;;;;;10.85;2.47;;;;;;;17.73;66.63;93258.19;5064178;28;20031;-80
2022/11/20 10:40:34;;;;;;;13.88;4.20;;;;;;;17.74;65.04;93278.59;5064282;28;20021;-80
2022/11/20 10:43:01;;;;;;;7.38;2.50;;;;;;;17.61;64.33;93276.16;5064158;28;20028;-80
2022/11/20 10:45:26;;;;;;;14.82;2.80;;;;;;;17.48;64.93;93293.72;5064098;28;20028;-79
2022/11/20 10:48:14;;;;;;;6.90;2.50;;;;;;;17.37;66.89;93296.31;5064255;28;20066;-80
2022/11/20 10:50:53;;;;;;;7.88;2.45;;;;;;;17.30;67.04;93285.50;5063767;28;20021;-80
2022/11/20 10:53:49;;;;;;;10.63;4.93;;;;;;;17.27;68.20;93286.22;5063857;28;20045;-80
2022/11/20 10:56:24;;;;;;;15.77;6.50;;;;;;;17.30;69.81;93304.34;5063798;28;20035;-80
2022/11/20 10:59:08;;;;;;;9.88;4.85;;;;;;;17.34;69.68;93294.38;5063548;28;20397;-80
2022/11/20 11:01:40;;;;;;;11.25;3.67;;;;;;;17.24;67.60;93319.28;5063769;28;20040;-79
2022/11/20 11:04:34;;;;;;;8.00;3.17;;;;;;;17.28;68.78;93297.75;5063709;28;20021;-79
2022/11/20 11:07:49;;;;;;;13.57;4.05;;;;;;;17.26;70.40;93341.25;5056229;28;20021;-79
2022/11/20 11:10:18;;;;;;;8.90;3.10;;;;;;;16.73;72.68;93378.97;5062311;28;20036;-80
2022/11/20 11:12:47;;;;;;;8.35;2.63;;;;;;;15.55;73.19;93410.03;5063567;28;20017;-79
2022/11/20 11:15:35;;;;;;;6.60;1.10;;;;;;;15.25;59.84;93349.66;5063519;28;20017;-79
2022/11/20 11:18:00;;;;;;;3.13;0.80;;;;;;;14.89;66.41;93353.53;5059274;28;20044;-79
2022/11/20 11:20:26;;;;;;;2.85;0.95;;;;;;;14.34;65.42;93347.34;5063612;28;20092;-79
2022/11/20 11:22:58;;;;;;;1.58;0.80;;;;;;;14.01;67.81;93362.66;5063423;28;20082;-78
2022/11/20 11:25:36;;;;;;;1.52;0.60;;;;;;;13.64;66.95;93316.63;5063274;28;20062;-78
2022/11/20 11:28:17;;;;;;;1.48;0.40;;;;;;;13.42;68.79;93310.72;5062119;28;20140;-79
2022/11/20 11:30:44;;;;;;;4.18;0.52;;;;;;;13.16;70.00;93340.59;5062046;28;20021;-78
2022/11/20 11:33:12;;;;;;;1.90;0.60;;;;;;;12.89;68.34;93363.56;5062026;28;20096;-78
2022/11/20 11:35:46;;;;;;;1.55;0.60;;;;;;;12.55;71.72;93301.47;5062945;28;20021;-78
2022/11/20 11:38:16;;;;;;;3.45;0.60;;;;;;;12.29;72.27;93315.22;5062975;28;20056;-78
2022/11/20 11:40:42;;;;;;;2.50;0.80;;;;;;;12.17;73.93;93307.22;5062976;28;20025;-78
2022/11/20 11:46:21;;;;;;;1.50;0.40;;;;;;;12.22;71.83;93318.47;5062905;28;20020;-78
2022/11/20 11:49:17;;;;;;;6.90;1.23;;;;;;;12.36;72.86;93314.66;5063141;28;20021;-78
2022/11/20 11:52:05;;;;;;;7.53;1.17;;;;;;;12.37;74.09;93310.88;5062327;28;20036;-78